Time;durP1;ratioP1;P1;durP2;ratioP2;P2;SDS_P1;SDS_P2;PMS_P1;PMS_P2;Temp;Humidity;BMP_temperature;BMP_pressure;BME280_temperature;BME280_humidity;BME280_pressure;Samples;Min_cycle;Max_cycle;Signal;HPM_P1;HPM_P2
2022/03/23 00:00:11;;;;;;;0.50;0.50;;;;;;;7.04;39.42;98030.97;29395;215;63005;-62
2022/03/23 00:00:44;;;;;;;0.50;0.50;;;;;;;7.04;39.47;98030.97;29395;209;63005;-61
2022/03/23 00:01:16;;;;;;;0.60;0.60;;;;;;;7.05;39.38;98032.59;29394;198;64009;-61
2022/03/23 00:01:47;;;;;;;0.50;0.50;;;;;;;7.05;39.49;98028.03;29395;305;63005;-63
2022/03/23 00:02:18;;;;;;;0.50;0.50;;;;;;;7.06;39.48;98032.34;29395;207;63009;-67
2022/03/23 00:02:50;;;;;;;0.50;0.50;;;;;;;7.08;39.23;98037.50;29395;199;63005;-60
2022/03/23 00:03:24;;;;;;;0.50;0.50;;;;;;;7.09;39.37;98038.34;29395;203;63009;-62
2022/03/23 00:03:55;;;;;;;0.50;0.50;;;;;;;7.08;39.07;98032.13;29395;218;63010;-62
2022/03/23 00:04:27;;;;;;;1.98;1.92;;;;;;;7.07;38.70;98031.31;29395;199;63009;-61
2022/03/23 00:04:58;;;;;;;0.50;0.50;;;;;;;7.08;38.90;98037.50;29395;226;63004;-62
2022/03/23 00:05:30;;;;;;;0.50;0.50;;;;;;;7.08;38.68;98026.72;29395;196;63009;-65
2022/03/23 00:06:02;;;;;;;0.50;0.50;;;;;;;7.09;38.76;98039.16;29395;274;63004;-61
2022/03/23 00:06:34;;;;;;;0.50;0.50;;;;;;;7.09;38.80;98033.75;29394;278;64008;-65
2022/03/23 00:07:06;;;;;;;0.50;0.50;;;;;;;7.10;38.73;98027.31;29395;202;63005;-64
2022/03/23 00:07:38;;;;;;;0.50;0.50;;;;;;;7.11;39.10;98037.03;29395;239;63009;-64
2022/03/23 00:08:09;;;;;;;0.50;0.50;;;;;;;7.11;39.17;98034.34;29395;227;63005;-62
2022/03/23 00:08:41;;;;;;;0.50;0.50;;;;;;;7.11;39.21;98028.13;29395;197;63009;-65
2022/03/23 00:09:14;;;;;;;0.50;0.50;;;;;;;7.11;39.24;98026.25;29395;197;63005;-61
2022/03/23 00:09:45;;;;;;;0.50;0.50;;;;;;;7.12;39.26;98027.87;29395;278;63009;-62
2022/03/23 00:10:16;;;;;;;0.50;0.50;;;;;;;7.13;39.24;98029.53;29394;197;64005;-64
2022/03/23 00:10:48;;;;;;;0.50;0.50;;;;;;;7.13;39.18;98026.00;29373;238;63009;-64
2022/03/23 00:11:21;;;;;;;0.60;0.60;;;;;;;7.12;39.36;98022.47;29395;249;63004;-65
2022/03/23 00:11:54;;;;;;;0.50;0.50;;;;;;;7.13;39.34;98023.31;29395;215;63009;-65
2022/03/23 00:12:25;;;;;;;0.57;0.57;;;;;;;7.13;39.32;98024.12;29395;213;63015;-62
2022/03/23 00:12:59;;;;;;;0.50;0.50;;;;;;;7.14;38.93;98023.06;29395;221;63009;-64
2022/03/23 00:13:31;;;;;;;0.50;0.50;;;;;;;7.14;38.67;98020.34;29395;198;63004;-64
2022/03/23 00:14:05;;;;;;;0.55;0.55;;;;;;;7.13;37.80;98018.72;29395;255;63008;-64
2022/03/23 00:14:37;;;;;;;0.50;0.50;;;;;;;7.13;38.17;98017.91;29395;202;63005;-65
2022/03/23 00:15:10;;;;;;;0.60;0.60;;;;;;;7.13;38.34;98018.72;29395;215;63009;-65
2022/03/23 00:15:42;;;;;;;0.50;0.50;;;;;;;7.12;38.27;98017.09;29394;227;64005;-65
2022/03/23 00:16:14;;;;;;;0.50;0.50;;;;;;;7.13;38.69;98026.00;29394;237;64009;-64
2022/03/23 00:16:45;;;;;;;0.50;0.50;;;;;;;7.13;38.61;98032.22;29395;207;63005;-64
2022/03/23 00:17:16;;;;;;;0.50;0.50;;;;;;;7.13;38.31;98018.72;29395;252;63009;-65
2022/03/23 00:17:48;;;;;;;0.52;0.52;;;;;;;7.12;38.36;98025.19;29395;199;63005;-65
2022/03/23 00:18:28;;;;;;;0.50;0.50;;;;;;;7.13;38.59;98018.72;29395;242;63009;-62
2022/03/23 00:19:02;;;;;;;0.50;0.50;;;;;;;7.13;38.48;98023.31;29417;212;63004;-61
2022/03/23 00:19:34;;;;;;;0.50;0.50;;;;;;;7.14;38.73;98022.25;29373;267;63021;-64
2022/03/23 00:20:07;;;;;;;0.60;0.60;;;;;;;7.14;38.15;98020.34;29395;237;63004;-64
2022/03/23 00:20:39;;;;;;;0.50;0.50;;;;;;;7.15;38.20;98024.69;29395;198;63009;-65
2022/03/23 00:21:11;;;;;;;0.50;0.50;;;;;;;7.15;38.19;98019.28;29394;238;64004;-64
2022/03/23 00:21:44;;;;;;;0.50;0.50;;;;;;;7.16;37.93;98023.62;29395;240;63008;-65
2022/03/23 00:22:15;;;;;;;0.60;0.60;;;;;;;7.15;37.89;98022.00;29395;197;63005;-62
2022/03/23 00:22:47;;;;;;;1.08;1.08;;;;;;;7.16;38.32;98020.94;29395;237;63009;-63
2022/03/23 00:23:19;;;;;;;0.50;0.50;;;;;;;7.16;38.17;98020.94;29395;218;63005;-63
2022/03/23 00:23:50;;;;;;;0.50;0.50;;;;;;;7.17;38.27;98025.28;29395;279;63009;-60
2022/03/23 00:24:22;;;;;;;0.50;0.50;;;;;;;7.16;38.05;98023.62;29395;261;63005;-66
2022/03/23 00:24:56;;;;;;;0.60;0.60;;;;;;;7.15;36.98;98015.78;29395;197;63022;-61
2022/03/23 00:25:31;;;;;;;0.60;0.60;;;;;;;7.15;37.57;98016.59;29395;223;63005;-62
2022/03/23 00:26:03;;;;;;;0.50;0.50;;;;;;;7.14;37.77;98014.97;29394;252;64009;-62
2022/03/23 00:26:36;;;;;;;0.50;0.50;;;;;;;7.15;37.99;98018.47;29395;210;63004;-65
2022/03/23 00:27:10;;;;;;;0.60;0.60;;;;;;;7.16;38.17;98022.81;29395;240;63009;-61
2022/03/23 00:27:41;;;;;;;0.50;0.50;;;;;;;7.16;38.21;98022.81;29395;246;63004;-64
2022/03/23 00:28:13;;;;;;;0.55;0.55;;;;;;;7.14;38.05;98012.25;29394;224;64009;-64
2022/03/23 00:28:44;;;;;;;0.50;0.50;;;;;;;7.16;37.62;98018.25;29395;222;63004;-63
2022/03/23 00:29:20;;;;;;;0.50;0.50;;;;;;;7.16;37.79;98018.25;29394;209;64008;-62
2022/03/23 00:29:52;;;;;;;0.60;0.60;;;;;;;7.15;37.95;98019.28;29395;260;63005;-64
2022/03/23 00:30:23;;;;;;;0.50;0.50;;;;;;;7.16;37.38;98017.41;29395;225;63009;-62
2022/03/23 00:30:55;;;;;;;1.70;1.67;;;;;;;7.14;37.63;98016.84;29395;239;63005;-63
2022/03/23 00:31:26;;;;;;;0.50;0.50;;;;;;;7.14;37.75;98014.97;29395;197;63009;-64
2022/03/23 00:31:58;;;;;;;0.60;0.60;;;;;;;7.14;37.55;98017.66;29395;217;63005;-65
2022/03/23 00:32:29;;;;;;;0.50;0.50;;;;;;;7.15;37.77;98010.38;29394;206;64003;-62
2022/03/23 00:33:02;;;;;;;0.50;0.50;;;;;;;7.16;37.42;98012.84;29395;207;63005;-64
2022/03/23 00:33:34;;;;;;;0.50;0.50;;;;;;;7.15;37.74;98016.59;29395;220;63009;-65
2022/03/23 00:34:11;;;;;;;0.50;0.50;;;;;;;7.13;37.91;98021.41;29394;203;64004;-65
2022/03/23 00:34:42;;;;;;;0.50;0.50;;;;;;;7.13;37.89;98013.31;29395;196;63009;-62
2022/03/23 00:35:14;;;;;;;0.50;0.50;;;;;;;7.11;37.92;98018.16;29395;223;63004;-62
2022/03/23 00:35:46;;;;;;;0.50;0.50;;;;;;;7.12;38.22;98011.69;29395;298;63009;-61
2022/03/23 00:36:20;;;;;;;0.50;0.50;;;;;;;7.12;38.23;98022.47;29394;228;64004;-65
2022/03/23 00:36:51;;;;;;;0.50;0.50;;;;;;;7.11;38.43;98014.63;29395;233;63020;-62
2022/03/23 00:37:23;;;;;;;0.50;0.50;;;;;;;7.11;38.28;98018.16;29394;221;64005;-64
2022/03/23 00:37:58;;;;;;;0.50;0.50;;;;;;;7.10;38.24;98018.38;29395;212;63009;-61
2022/03/23 00:38:30;;;;;;;0.50;0.50;;;;;;;7.09;38.24;98017.56;29394;199;64005;-65
2022/03/23 00:39:03;;;;;;;0.50;0.50;;;;;;;7.10;38.67;98018.38;29395;222;63009;-65
2022/03/23 00:39:37;;;;;;;0.60;0.60;;;;;;;7.09;38.51;98025.66;29395;202;63005;-63
2022/03/23 00:40:09;;;;;;;0.60;0.60;;;;;;;7.08;38.69;98021.31;29395;221;63009;-62
2022/03/23 00:40:41;;;;;;;0.50;0.50;;;;;;;7.06;38.74;98023.44;29394;297;64005;-64
2022/03/23 00:41:13;;;;;;;0.50;0.50;;;;;;;7.07;38.79;98019.69;29395;202;63009;-64
2022/03/23 00:41:49;;;;;;;0.50;0.50;;;;;;;7.06;38.55;98035.06;29395;307;63004;-65
2022/03/23 00:42:21;;;;;;;0.50;0.50;;;;;;;7.04;38.69;98026.37;29395;198;63009;-66
2022/03/23 00:42:52;;;;;;;0.60;0.60;;;;;;;7.05;38.56;98029.91;29395;218;63004;-65
2022/03/23 00:43:24;;;;;;;0.50;0.50;;;;;;;7.02;38.60;98023.09;29394;218;64009;-66
2022/03/23 00:43:55;;;;;;;0.50;0.50;;;;;;;7.02;38.68;98033.09;29395;199;63004;-66
2022/03/23 00:44:26;;;;;;;0.50;0.50;;;;;;;7.01;38.68;98031.44;29395;202;63008;-61
2022/03/23 00:44:58;;;;;;;0.50;0.50;;;;;;;7.00;38.89;98029.81;29395;212;63005;-66
2022/03/23 00:45:29;;;;;;;0.50;0.50;;;;;;;6.99;38.96;98033.56;29395;265;63009;-61
2022/03/23 00:46:01;;;;;;;0.60;0.60;;;;;;;6.98;38.93;98032.75;29395;269;63005;-65
2022/03/23 00:46:33;;;;;;;0.50;0.50;;;;;;;6.97;38.79;98030.28;29395;219;63009;-63
2022/03/23 00:47:05;;;;;;;0.50;0.50;;;;;;;6.96;39.16;98031.34;29394;235;64005;-61
2022/03/23 00:47:37;;;;;;;0.60;0.60;;;;;;;6.95;39.30;98032.41;29394;219;64009;-65
2022/03/23 00:48:10;;;;;;;0.60;0.60;;;;;;;6.93;39.22;98029.94;29394;292;64003;-64
2022/03/23 00:48:42;;;;;;;0.60;0.60;;;;;;;6.93;39.43;98035.34;29373;225;63009;-64
2022/03/23 00:49:13;;;;;;;0.50;0.50;;;;;;;6.92;39.33;98039.12;29395;212;63004;-66
2022/03/23 00:49:48;;;;;;;0.50;0.50;;;;;;;6.92;39.32;98032.91;29395;262;63009;-66
2022/03/23 00:50:19;;;;;;;0.60;0.60;;;;;;;6.91;39.39;98036.69;29395;266;63004;-62
2022/03/23 00:50:52;;;;;;;0.50;0.50;;;;;;;6.90;39.45;98029.66;29373;199;63008;-66
2022/03/23 00:51:24;;;;;;;0.50;0.50;;;;;;;6.88;39.42;98037.16;29395;214;63004;-66
2022/03/23 00:51:56;;;;;;;0.50;0.50;;;;;;;6.87;39.41;98032.81;29395;244;63009;-61
2022/03/23 00:52:28;;;;;;;0.57;0.57;;;;;;;6.85;39.60;98037.63;29373;223;63005;-65
2022/03/23 00:53:00;;;;;;;0.60;0.60;;;;;;;6.84;39.67;98041.38;29394;242;64009;-61
2022/03/23 00:53:31;;;;;;;0.60;0.60;;;;;;;6.83;39.83;98034.34;29373;216;63005;-61
2022/03/23 00:54:02;;;;;;;0.50;0.50;;;;;;;6.80;39.70;98041.06;29395;198;63009;-65
2022/03/23 00:54:37;;;;;;;0.50;0.50;;;;;;;6.79;40.04;98038.59;29394;339;64005;-61
2022/03/23 00:55:09;;;;;;;0.50;0.50;;;;;;;6.77;40.12;98036.13;29395;229;63009;-66
2022/03/23 00:55:42;;;;;;;0.50;0.50;;;;;;;6.75;40.15;98042.81;29395;218;63005;-61
2022/03/23 00:56:13;;;;;;;0.50;0.50;;;;;;;6.72;40.26;98039.56;29395;237;63009;-66
2022/03/23 00:56:44;;;;;;;0.50;0.50;;;;;;;6.68;40.76;98038.38;29395;204;63004;-61
2022/03/23 00:57:16;;;;;;;0.55;0.55;;;;;;;6.63;41.19;98035.59;29395;239;63009;-65
2022/03/23 00:57:48;;;;;;;0.50;0.50;;;;;;;6.59;40.98;98039.00;29394;214;64004;-66
2022/03/23 00:58:19;;;;;;;0.50;0.50;;;;;;;6.57;40.92;98036.56;29395;236;63008;-65
2022/03/23 00:58:50;;;;;;;0.60;0.60;;;;;;;6.56;41.28;98039.50;29395;275;63000;-62
2022/03/23 00:59:22;;;;;;;0.57;0.57;;;;;;;6.54;41.49;98037.03;29395;237;63005;-61
2022/03/23 00:59:53;;;;;;;0.50;0.50;;;;;;;6.52;41.45;98038.34;29395;227;63005;-65
2022/03/23 01:00:25;;;;;;;0.50;0.50;;;;;;;6.49;41.71;98039.63;29395;207;63009;-65
2022/03/23 01:00:57;;;;;;;0.50;0.50;;;;;;;6.49;41.75;98033.41;29395;273;63005;-65
2022/03/23 01:01:29;;;;;;;0.50;0.50;;;;;;;6.46;41.79;98034.72;29395;204;63009;-62
2022/03/23 01:02:01;;;;;;;0.50;0.50;;;;;;;6.44;42.00;98039.53;29394;216;64005;-61
2022/03/23 01:02:36;;;;;;;0.55;0.55;;;;;;;6.42;42.08;98036.25;29395;218;63009;-61
2022/03/23 01:03:09;;;;;;;0.50;0.50;;;;;;;6.39;42.33;98040.22;29394;220;64005;-61
2022/03/23 01:03:41;;;;;;;0.50;0.50;;;;;;;6.37;42.51;98038.84;29395;198;63009;-66
2022/03/23 01:04:13;;;;;;;0.55;0.55;;;;;;;6.34;42.61;98044.69;29395;227;63004;-65
2022/03/23 01:04:44;;;;;;;0.60;0.60;;;;;;;6.33;42.44;98034.97;29395;199;63009;-66
2022/03/23 01:05:16;;;;;;;0.50;0.50;;;;;;;6.31;42.48;98037.06;29395;266;63004;-66
2022/03/23 01:05:51;;;;;;;0.50;0.50;;;;;;;6.29;42.65;98039.19;29395;275;63008;-65
2022/03/23 01:06:22;;;;;;;0.50;0.50;;;;;;;6.28;42.46;98040.25;29394;237;64004;-64
2022/03/23 01:06:54;;;;;;;0.50;0.50;;;;;;;6.25;42.39;98032.63;29395;327;63009;-65
2022/03/23 01:07:25;;;;;;;0.50;0.50;;;;;;;6.25;42.58;98038.03;29373;210;63005;-66
2022/03/23 01:07:56;;;;;;;0.60;0.60;;;;;;;6.23;42.62;98037.47;29395;293;63009;-62
2022/03/23 01:08:28;;;;;;;0.50;0.50;;;;;;;6.22;42.72;98041.22;29373;211;63005;-62
2022/03/23 01:08:59;;;;;;;0.60;0.60;;;;;;;6.22;42.77;98043.91;29373;273;63009;-67
2022/03/23 01:09:30;;;;;;;0.50;0.50;;;;;;;6.21;42.64;98039.59;29373;209;63005;-65
2022/03/23 01:10:02;;;;;;;0.60;0.60;;;;;;;6.19;42.68;98034.44;29395;330;63009;-66
2022/03/23 01:10:34;;;;;;;0.50;0.50;;;;;;;6.18;42.83;98042.75;29373;332;63005;-66
2022/03/23 01:11:05;;;;;;;0.50;0.50;;;;;;;6.17;42.41;98035.72;29373;252;63009;-66
2022/03/23 01:11:40;;;;;;;0.50;0.50;;;;;;;6.15;42.18;98033.25;29394;197;64004;-63
2022/03/23 01:12:12;;;;;;;0.50;0.50;;;;;;;6.16;42.47;98039.47;29394;238;64009;-62
2022/03/23 01:12:45;;;;;;;0.60;0.60;;;;;;;6.15;42.23;98032.44;29373;230;63004;-65
2022/03/23 01:13:17;;;;;;;0.85;0.85;;;;;;;6.16;42.30;98037.59;29395;214;63009;-64
2022/03/23 01:13:49;;;;;;;0.50;0.50;;;;;;;6.17;42.39;98035.72;29373;218;63004;-64
2022/03/23 01:14:22;;;;;;;0.60;0.60;;;;;;;6.19;42.36;98033.59;29395;212;63009;-65
2022/03/23 01:14:54;;;;;;;6.10;5.90;;;;;;;6.21;42.20;98031.50;29373;203;63005;-65
2022/03/23 01:15:29;;;;;;;0.50;0.50;;;;;;;6.22;42.03;98030.44;29373;239;63009;-60
2022/03/23 01:16:05;;;;;;;0.50;0.50;;;;;;;6.22;42.09;98035.81;29373;197;63005;-65
2022/03/23 01:16:40;;;;;;;0.60;0.60;;;;;;;6.23;42.17;98037.47;29371;196;64009;-65
2022/03/23 01:17:12;;;;;;;0.50;0.50;;;;;;;6.23;42.16;98032.06;29373;329;63005;-65
2022/03/23 01:17:44;;;;;;;0.50;0.50;;;;;;;6.24;42.10;98036.38;29373;214;63009;-64
2022/03/23 01:18:15;;;;;;;0.50;0.50;;;;;;;6.25;41.95;98032.63;29373;200;63005;-67
2022/03/23 01:18:46;;;;;;;0.50;0.50;;;;;;;6.24;42.24;98031.00;29371;364;64009;-66
2022/03/23 01:19:20;;;;;;;0.65;0.65;;;;;;;6.23;42.50;98034.78;29373;196;63004;-66
2022/03/23 01:19:52;;;;;;;0.50;0.50;;;;;;;6.22;42.57;98025.06;29373;236;63009;-65
2022/03/23 01:20:23;;;;;;;1.67;1.67;;;;;;;6.22;43.08;98023.16;29395;213;63004;-65
2022/03/23 01:20:54;;;;;;;0.52;0.52;;;;;;;6.22;42.80;98033.94;29373;221;63008;-65
2022/03/23 01:21:27;;;;;;;0.50;0.50;;;;;;;6.21;42.95;98031.50;29373;272;63004;-65
2022/03/23 01:21:59;;;;;;;0.50;0.50;;;;;;;6.20;43.11;98029.84;29373;214;63009;-65
2022/03/23 01:22:30;;;;;;;0.50;0.50;;;;;;;6.21;42.88;98032.31;29373;265;63005;-66
2022/03/23 01:23:02;;;;;;;0.50;0.50;;;;;;;6.22;42.62;98027.75;29373;326;63009;-61
2022/03/23 01:23:33;;;;;;;0.75;0.75;;;;;;;6.22;42.70;98031.25;29373;229;63005;-65
2022/03/23 01:24:06;;;;;;;0.50;0.50;;;;;;;6.24;42.50;98028.28;29371;275;64001;-64
2022/03/23 01:24:40;;;;;;;0.50;0.50;;;;;;;6.23;42.49;98024.81;29373;229;63005;-66
2022/03/23 01:25:15;;;;;;;0.50;0.50;;;;;;;6.23;42.67;98030.19;29373;296;63009;-61
2022/03/23 01:25:47;;;;;;;0.60;0.60;;;;;;;6.25;42.69;98021.84;29373;280;63005;-65
2022/03/23 01:26:18;;;;;;;0.50;0.50;;;;;;;6.25;42.78;98029.94;29373;258;63009;-60
2022/03/23 01:26:49;;;;;;;0.50;0.50;;;;;;;6.24;42.86;98025.59;29373;230;63010;-64
2022/03/23 01:27:21;;;;;;;0.60;0.60;;;;;;;6.24;43.33;98031.00;29395;234;63009;-66
2022/03/23 01:27:56;;;;;;;0.50;0.50;;;;;;;6.24;43.65;98028.28;29395;208;63004;-61
2022/03/23 01:28:28;;;;;;;0.50;0.50;;;;;;;6.23;43.47;98032.06;29371;262;64008;-61
2022/03/23 01:28:59;;;;;;;0.50;0.50;;;;;;;6.22;44.04;98027.75;29373;313;63004;-61
2022/03/23 01:29:31;;;;;;;0.50;0.50;;;;;;;6.22;43.71;98030.44;29373;256;63009;-61
2022/03/23 01:30:08;;;;;;;0.50;0.50;;;;;;;6.22;44.11;98033.13;29373;238;63005;-64
2022/03/23 01:30:39;;;;;;;0.50;0.50;;;;;;;6.22;43.95;98027.75;29373;254;63009;-65
2022/03/23 01:31:11;;;;;;;0.50;0.50;;;;;;;6.21;44.02;98029.63;29373;200;63005;-64
2022/03/23 01:31:43;;;;;;;0.50;0.50;;;;;;;6.20;44.04;98032.56;29373;363;63009;-64
2022/03/23 01:32:15;;;;;;;0.50;0.50;;;;;;;6.20;44.07;98025.28;29371;227;64005;-61
2022/03/23 01:32:46;;;;;;;0.50;0.50;;;;;;;6.21;43.80;98026.09;29371;229;64009;-65
2022/03/23 01:33:17;;;;;;;0.50;0.50;;;;;;;6.20;43.71;98032.56;29373;210;63005;-65
2022/03/23 01:33:48;;;;;;;0.50;0.50;;;;;;;6.20;43.69;98024.47;29373;269;63009;-63
2022/03/23 01:34:19;;;;;;;0.60;0.60;;;;;;;6.21;43.65;98029.63;29373;286;63004;-64
2022/03/23 01:34:51;;;;;;;0.50;0.50;;;;;;;6.21;43.76;98020.72;29371;240;64009;-66
2022/03/23 01:35:23;;;;;;;0.50;0.50;;;;;;;6.22;43.65;98020.47;29373;241;63004;-61
2022/03/23 01:35:55;;;;;;;0.50;0.50;;;;;;;6.22;43.49;98027.75;29373;265;63009;-60
2022/03/23 01:36:31;;;;;;;0.57;0.57;;;;;;;6.22;43.80;98031.25;29395;238;63008;-65
2022/03/23 01:37:03;;;;;;;0.50;0.50;;;;;;;6.22;43.75;98027.75;29373;384;63009;-66
2022/03/23 01:37:35;;;;;;;0.50;0.50;;;;;;;6.22;44.05;98027.75;29373;257;63005;-65
2022/03/23 01:38:06;;;;;;;0.50;0.50;;;;;;;6.22;44.05;98030.44;29373;272;63009;-64
2022/03/23 01:38:38;;;;;;;0.60;0.60;;;;;;;6.22;44.31;98027.75;29373;289;63005;-66
2022/03/23 01:39:10;;;;;;;0.60;0.60;;;;;;;6.22;44.41;98017.78;29373;197;63009;-66
2022/03/23 01:39:41;;;;;;;0.57;0.57;;;;;;;6.22;44.36;98025.06;29371;296;64005;-67
2022/03/23 01:40:14;;;;;;;0.60;0.60;;;;;;;6.21;44.55;98026.09;29373;207;63009;-65
2022/03/23 01:40:46;;;;;;;0.55;0.55;;;;;;;6.21;44.49;98020.72;29371;199;64004;-61
2022/03/23 01:41:17;;;;;;;0.50;0.50;;;;;;;6.20;44.68;98029.84;29373;375;63009;-66
2022/03/23 01:41:48;;;;;;;0.50;0.50;;;;;;;6.19;44.84;98028.22;29373;250;63004;-61
2022/03/23 01:42:19;;;;;;;0.50;0.50;;;;;;;6.18;45.20;98032.78;29373;235;63009;-63
2022/03/23 01:42:51;;;;;;;0.50;0.50;;;;;;;6.17;45.63;98030.31;29373;218;63004;-66
2022/03/23 01:43:22;;;;;;;0.60;0.60;;;;;;;6.17;45.66;98038.41;29371;226;64008;-66
2022/03/23 01:43:53;;;;;;;0.50;0.50;;;;;;;6.16;45.64;98034.91;29373;204;63004;-66
2022/03/23 01:44:25;;;;;;;0.60;0.60;;;;;;;6.15;45.70;98032.44;29373;348;63009;-66
2022/03/23 01:44:58;;;;;;;0.52;0.52;;;;;;;6.14;46.11;98036.19;29373;214;63005;-66
2022/03/23 01:45:30;;;;;;;0.60;0.60;;;;;;;6.13;46.00;98045.31;29371;206;64009;-64
2022/03/23 01:46:02;;;;;;;0.50;0.50;;;;;;;6.11;46.04;98036.66;29373;198;63005;-61
2022/03/23 01:46:34;;;;;;;0.50;0.50;;;;;;;6.08;45.83;98037.94;29373;367;63009;-61
2022/03/23 01:47:11;;;;;;;0.50;0.50;;;;;;;6.03;46.23;98025.19;29373;203;63005;-65
2022/03/23 01:47:43;;;;;;;0.60;0.60;;;;;;;6.00;46.05;98039.12;29373;213;63009;-64
2022/03/23 01:48:14;;;;;;;0.60;0.60;;;;;;;5.99;45.93;98034.78;29373;202;63004;-66
2022/03/23 01:48:47;;;;;;;0.57;0.57;;;;;;;5.97;46.09;98031.50;29371;321;64009;-66
2022/03/23 01:49:22;;;;;;;0.50;0.50;;;;;;;5.95;46.11;98033.59;29373;243;63004;-66
2022/03/23 01:49:55;;;;;;;0.50;0.50;;;;;;;5.93;46.34;98038.41;29371;363;64009;-65
2022/03/23 01:50:26;;;;;;;0.50;0.50;;;;;;;5.93;46.27;98035.72;29373;206;63004;-65
2022/03/23 01:50:57;;;;;;;0.50;0.50;;;;;;;5.92;46.02;98034.06;29373;247;63008;-61
2022/03/23 01:51:28;;;;;;;0.50;0.50;;;;;;;5.92;45.95;98039.47;29372;199;64005;-61
2022/03/23 01:52:03;;;;;;;0.60;0.60;;;;;;;5.92;45.84;98034.06;29373;211;63009;-65
2022/03/23 01:52:34;;;;;;;0.60;0.60;;;;;;;5.92;45.58;98034.06;29373;218;63005;-66
2022/03/23 01:53:06;;;;;;;0.60;0.60;;;;;;;5.93;45.51;98030.31;29371;202;64009;-66
2022/03/23 01:53:38;;;;;;;0.50;0.50;;;;;;;5.93;45.59;98030.31;29395;209;63005;-61
2022/03/23 01:54:09;;;;;;;0.50;0.50;;;;;;;5.93;45.48;98035.72;29373;277;63009;-65
2022/03/23 01:54:42;;;;;;;0.60;0.60;;;;;;;5.95;45.65;98038.19;29373;364;63005;-66
2022/03/23 01:55:14;;;;;;;0.50;0.50;;;;;;;5.95;45.33;98030.91;29373;208;63009;-61
2022/03/23 01:55:46;;;;;;;0.50;0.50;;;;;;;5.97;45.38;98025.28;29373;198;63004;-65
2022/03/23 01:56:17;;;;;;;0.60;0.60;;;;;;;5.99;45.17;98032.09;29373;354;63009;-61
2022/03/23 01:56:50;;;;;;;0.60;0.60;;;;;;;6.04;45.01;98031.38;29371;374;64004;-61
2022/03/23 01:57:25;;;;;;;0.60;0.60;;;;;;;6.07;44.61;98027.41;29373;248;63009;-66
2022/03/23 01:57:56;;;;;;;0.52;0.52;;;;;;;6.10;45.12;98037.72;29373;235;63004;-61
2022/03/23 01:58:28;;;;;;;0.50;0.50;;;;;;;6.11;44.83;98036.66;29373;362;63008;-65
2022/03/23 01:58:59;;;;;;;0.60;0.60;;;;;;;6.13;44.84;98029.16;29373;290;63011;-66
2022/03/23 01:59:30;;;;;;;0.50;0.50;;;;;;;6.14;44.95;98030.78;29373;280;63009;-61
2022/03/23 02:00:03;;;;;;;0.60;0.60;;;;;;;6.15;44.93;98032.44;29373;202;63005;-65
2022/03/23 02:00:35;;;;;;;0.52;0.52;;;;;;;6.14;45.30;98034.31;29371;341;64009;-60
2022/03/23 02:01:07;;;;;;;0.60;0.60;;;;;;;6.14;45.62;98033.50;29373;342;63005;-65
2022/03/23 02:01:39;;;;;;;0.60;0.60;;;;;;;6.12;45.51;98030.22;29373;224;63009;-61
2022/03/23 02:02:11;;;;;;;0.50;0.50;;;;;;;6.11;45.74;98031.28;29373;358;63005;-63
2022/03/23 02:02:46;;;;;;;0.50;0.50;;;;;;;6.11;45.26;98040.16;29373;262;63009;-61
2022/03/23 02:03:17;;;;;;;0.60;0.60;;;;;;;6.12;45.06;98038.28;29373;291;63004;-61
2022/03/23 02:03:48;;;;;;;0.50;0.50;;;;;;;6.13;45.38;98031.84;29373;286;63004;-65
2022/03/23 02:04:21;;;;;;;0.50;0.50;;;;;;;6.16;44.97;98028.69;29371;241;64004;-64
2022/03/23 02:04:53;;;;;;;0.60;0.60;;;;;;;6.17;44.92;98033.03;29395;288;63009;-64
2022/03/23 02:05:24;;;;;;;0.60;0.60;;;;;;;6.18;44.51;98029.28;29373;247;63004;-65
2022/03/23 02:05:55;;;;;;;0.50;0.50;;;;;;;6.18;44.68;98027.41;29373;330;63008;-66
2022/03/23 02:06:26;;;;;;;0.60;0.60;;;;;;;6.19;44.94;98028.22;29373;288;63005;-61
2022/03/23 02:06:57;;;;;;;0.60;0.60;;;;;;;6.20;44.71;98029.84;29373;347;63009;-64
2022/03/23 02:07:30;;;;;;;0.60;0.60;;;;;;;6.20;44.63;98025.28;29371;295;64005;-61
2022/03/23 02:08:01;;;;;;;0.60;0.60;;;;;;;6.21;44.78;98026.94;29373;219;63009;-64
2022/03/23 02:08:32;;;;;;;0.60;0.60;;;;;;;6.21;44.75;98024.22;29373;344;63005;-61
2022/03/23 02:09:04;;;;;;;0.60;0.60;;;;;;;6.24;45.13;98031.00;29373;317;63009;-66
2022/03/23 02:09:37;;;;;;;0.50;0.50;;;;;;;6.24;44.63;98025.59;29373;203;63005;-61
2022/03/23 02:10:09;;;;;;;0.60;0.60;;;;;;;6.25;44.57;98027.25;29395;196;63009;-65
2022/03/23 02:10:42;;;;;;;0.60;0.60;;;;;;;6.25;44.62;98027.25;29373;225;63004;-61
2022/03/23 02:11:13;;;;;;;0.60;0.60;;;;;;;6.25;44.70;98033.44;29371;288;64009;-61
2022/03/23 02:11:45;;;;;;;0.60;0.60;;;;;;;6.25;44.79;98021.84;29373;246;63004;-66
2022/03/23 02:12:21;;;;;;;0.60;0.60;;;;;;;6.25;44.84;98021.84;29373;312;63009;-65
2022/03/23 02:12:52;;;;;;;0.57;0.57;;;;;;;6.25;44.90;98027.25;29373;242;63004;-65
2022/03/23 02:13:24;;;;;;;0.60;0.60;;;;;;;6.24;45.69;98031.00;29373;297;63008;-61
2022/03/23 02:13:57;;;;;;;0.60;0.60;;;;;;;6.21;46.09;98032.31;29371;296;64005;-65
2022/03/23 02:14:29;;;;;;;0.60;0.60;;;;;;;6.18;46.01;98031.97;29373;197;63009;-67
2022/03/23 02:15:10;;;;;;;0.60;0.60;;;;;;;6.14;45.66;98031.62;29373;243;63005;-66
2022/03/23 02:15:42;;;;;;;0.50;0.50;;;;;;;6.15;45.70;98032.44;29395;244;63005;-65
2022/03/23 02:16:13;;;;;;;0.50;0.50;;;;;;;6.16;45.64;98034.06;29395;230;63005;-61
2022/03/23 02:16:48;;;;;;;0.50;0.50;;;;;;;6.16;45.48;98029.50;29395;202;63009;-66
2022/03/23 02:17:19;;;;;;;0.50;0.50;;;;;;;6.16;45.03;98031.38;29373;206;63005;-61
2022/03/23 02:17:53;;;;;;;0.60;0.60;;;;;;;6.18;45.11;98026.56;29373;302;63009;-66
2022/03/23 02:18:25;;;;;;;0.50;0.50;;;;;;;6.18;44.78;98030.09;29373;357;63004;-65
2022/03/23 02:18:56;;;;;;;0.60;0.60;;;;;;;6.18;44.66;98021.19;29371;199;64009;-60
2022/03/23 02:19:28;;;;;;;0.50;0.50;;;;;;;6.18;44.85;98023.88;29373;197;63004;-66
2022/03/23 02:19:59;;;;;;;0.50;0.50;;;;;;;6.17;45.00;98020.37;29395;235;63009;-64
2022/03/23 02:20:32;;;;;;;0.50;0.50;;;;;;;6.19;44.83;98022.81;29373;331;63004;-66
2022/03/23 02:21:03;;;;;;;0.50;0.50;;;;;;;6.18;44.94;98027.41;29373;336;63008;-61
2022/03/23 02:21:35;;;;;;;0.50;0.50;;;;;;;6.18;45.24;98027.41;29373;270;63005;-62
2022/03/23 02:22:06;;;;;;;0.50;0.50;;;;;;;6.19;45.13;98025.53;29395;205;63009;-61
2022/03/23 02:22:38;;;;;;;0.50;0.50;;;;;;;6.18;45.08;98029.28;29395;218;63005;-60
2022/03/23 02:23:09;;;;;;;0.50;0.50;;;;;;;6.17;44.98;98025.75;29395;229;63009;-65
2022/03/23 02:23:41;;;;;;;0.50;0.50;;;;;;;6.18;45.15;98023.88;29395;209;63005;-60
2022/03/23 02:24:14;;;;;;;0.50;0.50;;;;;;;6.18;45.12;98029.28;29394;218;64009;-65
2022/03/23 02:24:48;;;;;;;0.50;0.50;;;;;;;6.18;45.30;98024.69;29395;219;63005;-66
2022/03/23 02:25:22;;;;;;;0.50;0.50;;;;;;;6.19;45.32;98022.81;29395;214;63009;-65
2022/03/23 02:26:00;;;;;;;0.50;0.50;;;;;;;6.19;45.06;98022.81;29395;282;63004;-65
2022/03/23 02:26:32;;;;;;;0.50;0.50;;;;;;;6.20;44.76;98019.91;29395;245;63009;-65
2022/03/23 02:27:03;;;;;;;0.50;0.50;;;;;;;6.20;44.43;98019.06;29395;224;63004;-61
2022/03/23 02:27:37;;;;;;;0.50;0.50;;;;;;;6.20;44.43;98024.47;29395;235;63009;-65
2022/03/23 02:28:10;;;;;;;0.50;0.50;;;;;;;6.21;44.57;98026.94;29395;302;63004;-61
2022/03/23 02:28:44;;;;;;;0.50;0.50;;;;;;;6.20;44.78;98024.47;29371;286;64008;-64
2022/03/23 02:29:17;;;;;;;0.50;0.50;;;;;;;6.22;45.00;98016.97;29395;205;63005;-64
2022/03/23 02:29:48;;;;;;;0.60;0.60;;;;;;;6.21;45.05;98032.31;29395;224;63009;-65
2022/03/23 02:30:21;;;;;;;0.50;0.50;;;;;;;6.22;44.82;98025.06;29395;227;63005;-66
2022/03/23 02:30:53;;;;;;;0.60;0.60;;;;;;;6.23;44.81;98024.00;29395;222;63009;-65
2022/03/23 02:31:28;;;;;;;0.57;0.57;;;;;;;6.24;44.80;98026.41;29395;209;63005;-65
2022/03/23 02:32:01;;;;;;;0.50;0.50;;;;;;;6.27;44.71;98022.44;29373;303;63009;-65
2022/03/23 02:32:32;;;;;;;0.50;0.50;;;;;;;6.28;44.37;98026.78;29373;325;63005;-65
2022/03/23 02:33:04;;;;;;;0.50;0.50;;;;;;;6.29;44.07;98017.63;29395;196;63009;-61
2022/03/23 02:33:35;;;;;;;0.50;0.50;;;;;;;6.30;44.08;98024.66;29395;198;63004;-65
2022/03/23 02:34:07;;;;;;;0.50;0.50;;;;;;;6.31;44.23;98021.72;29371;223;64009;-61
2022/03/23 02:34:38;;;;;;;0.50;0.50;;;;;;;6.32;44.40;98027.94;29395;227;63004;-65
2022/03/23 02:35:11;;;;;;;0.50;0.50;;;;;;;6.33;44.32;98024.19;29395;336;63009;-61
2022/03/23 02:35:43;;;;;;;0.50;0.50;;;;;;;6.33;44.42;98025.00;29395;202;63004;-62